createdAt,value
2018-07-13T00:01:32.362Z,16.01
2018-07-13T00:03:59.503Z,16.04
2018-07-13T00:06:26.657Z,16.01
2018-07-13T00:08:53.793Z,15.91
2018-07-13T00:11:21.013Z,15.63
2018-07-13T00:14:24.628Z,15.26
2018-07-13T00:16:53.048Z,15.45
2018-07-13T00:19:20.840Z,15.58
2018-07-13T00:21:48.012Z,15.79
2018-07-13T00:24:15.348Z,15.80
2018-07-13T00:26:42.536Z,15.80
2018-07-13T00:29:10.148Z,15.59
2018-07-13T00:31:38.325Z,15.63
2018-07-13T00:34:05.596Z,15.62
2018-07-13T00:36:32.796Z,15.65
2018-07-13T00:38:59.928Z,15.57
2018-07-13T00:41:27.091Z,15.35
2018-07-13T00:43:54.517Z,15.35
2018-07-13T00:46:22.013Z,15.41
2018-07-13T00:48:49.236Z,15.49
2018-07-13T00:51:16.449Z,15.50
2018-07-13T00:53:43.897Z,15.53
2018-07-13T00:56:11.062Z,15.37
2018-07-13T00:58:38.212Z,15.42
2018-07-13T01:01:05.420Z,14.94
2018-07-13T01:03:32.600Z,15.05
2018-07-13T01:05:59.796Z,15.13
2018-07-13T01:08:26.956Z,15.12
2018-07-13T01:10:54.160Z,15.24
2018-07-13T01:13:21.359Z,15.25
2018-07-13T01:15:48.493Z,15.24
2018-07-13T01:18:22.316Z,15.25
2018-07-13T01:20:49.489Z,15.25
2018-07-13T01:23:16.680Z,15.21
2018-07-13T01:25:43.847Z,14.76
2018-07-13T01:28:10.956Z,14.68
2018-07-13T01:30:38.112Z,14.32
2018-07-13T01:33:05.620Z,14.29
2018-07-13T01:35:32.875Z,14.38
2018-07-13T01:38:00.163Z,14.53
2018-07-13T01:40:27.324Z,14.61
2018-07-13T01:42:54.456Z,14.68
2018-07-13T01:45:21.611Z,14.78
2018-07-13T01:47:48.752Z,14.73
2018-07-13T01:50:16.032Z,14.29
2018-07-13T01:52:43.267Z,14.23
2018-07-13T01:55:10.392Z,14.08
2018-07-13T01:57:37.516Z,14.16
2018-07-13T02:00:05.398Z,14.18
2018-07-13T02:02:32.576Z,14.23
2018-07-13T02:04:59.760Z,14.38
2018-07-13T02:07:26.921Z,14.42
2018-07-13T02:09:55.032Z,14.25
2018-07-13T02:12:22.248Z,14.20
2018-07-13T02:14:49.757Z,14.21
2018-07-13T02:17:16.879Z,14.22
2018-07-13T02:19:44.069Z,14.25
2018-07-13T02:22:11.269Z,14.25
2018-07-13T02:24:38.404Z,14.33
2018-07-13T02:27:05.515Z,14.35
2018-07-13T02:29:32.687Z,14.33
2018-07-13T02:31:59.860Z,14.09
2018-07-13T02:34:26.991Z,14.14
2018-07-13T02:36:54.152Z,13.94
2018-07-13T02:39:21.307Z,13.95
2018-07-13T02:41:48.421Z,13.98
2018-07-13T02:44:15.568Z,14.04
2018-07-13T02:46:42.704Z,13.93
2018-07-13T02:49:09.854Z,13.73
2018-07-13T02:51:36.972Z,13.77
2018-07-13T02:54:04.248Z,13.58
2018-07-13T02:56:31.412Z,13.53
2018-07-13T02:58:58.549Z,13.45
2018-07-13T03:01:25.723Z,13.71
2018-07-13T03:03:52.865Z,13.53
2018-07-13T03:06:20.023Z,13.77
2018-07-13T03:08:47.145Z,13.76
2018-07-13T03:11:14.297Z,13.93
2018-07-13T03:13:41.401Z,14.10
2018-07-13T03:16:08.565Z,14.15
2018-07-13T03:18:35.668Z,13.87
2018-07-13T03:21:02.787Z,14.04
2018-07-13T03:23:29.944Z,14.10
2018-07-13T03:25:57.045Z,14.19
2018-07-13T03:28:24.188Z,14.03
2018-07-13T03:30:51.329Z,13.98
2018-07-13T03:33:18.577Z,13.82
2018-07-13T03:35:45.724Z,13.42
2018-07-13T03:38:12.856Z,13.20
2018-07-13T03:40:40.030Z,13.41
2018-07-13T03:43:07.187Z,13.64
2018-07-13T03:45:34.332Z,13.70
2018-07-13T03:48:01.440Z,13.52
2018-07-13T03:50:28.637Z,13.76
2018-07-13T03:52:55.786Z,13.54
2018-07-13T03:55:22.904Z,13.80
2018-07-13T03:57:50.020Z,13.79
2018-07-13T04:00:17.214Z,13.77
2018-07-13T04:02:44.407Z,13.80
2018-07-13T04:05:11.619Z,13.44
2018-07-13T04:07:38.716Z,13.54
2018-07-13T04:10:05.871Z,13.74
2018-07-13T04:12:33.032Z,13.79
2018-07-13T04:15:00.208Z,13.46
2018-07-13T04:17:27.340Z,13.69
2018-07-13T04:19:54.504Z,13.60
2018-07-13T04:22:21.659Z,13.81
2018-07-13T04:24:48.848Z,13.96
2018-07-13T04:27:16.004Z,14.20
2018-07-13T04:29:43.185Z,14.20
2018-07-13T04:32:10.330Z,13.99
2018-07-13T04:34:37.488Z,14.19
2018-07-13T04:37:04.669Z,14.33
2018-07-13T04:39:31.816Z,14.31
2018-07-13T04:41:58.912Z,14.51
2018-07-13T04:44:26.058Z,14.57
2018-07-13T04:46:53.260Z,14.68
2018-07-13T04:49:20.436Z,14.57
2018-07-13T04:51:47.585Z,14.61
2018-07-13T04:54:14.789Z,14.72
2018-07-13T04:56:41.932Z,14.76
2018-07-13T04:59:09.153Z,14.82
2018-07-13T05:01:36.329Z,15.24
2018-07-13T05:04:03.480Z,15.35
2018-07-13T05:06:30.657Z,15.63
2018-07-13T05:08:57.812Z,15.37
2018-07-13T05:11:24.959Z,15.30
2018-07-13T05:13:52.118Z,15.47
2018-07-13T05:16:19.600Z,15.78
2018-07-13T05:18:46.756Z,16.03
2018-07-13T05:21:13.943Z,16.26
2018-07-13T05:23:41.123Z,16.45
2018-07-13T05:26:08.518Z,16.66
2018-07-13T05:28:35.757Z,16.60
2018-07-13T05:31:03.076Z,16.86
2018-07-13T05:33:30.360Z,16.94
2018-07-13T05:35:57.532Z,16.90
2018-07-13T05:38:24.721Z,17.23
2018-07-13T05:40:51.956Z,17.41
2018-07-13T05:43:19.169Z,17.55
2018-07-13T05:45:46.444Z,17.80
2018-07-13T05:48:13.967Z,17.82
2018-07-13T05:50:41.160Z,17.91
2018-07-13T05:53:08.312Z,17.94
2018-07-13T05:55:35.483Z,17.82
2018-07-13T05:58:02.616Z,17.96
2018-07-13T06:00:29.785Z,17.88
2018-07-13T06:02:56.921Z,17.78
2018-07-13T06:05:24.140Z,17.97
2018-07-13T06:07:51.440Z,18.05
2018-07-13T06:10:18.688Z,18.21
2018-07-13T06:12:45.839Z,17.95
2018-07-13T06:15:12.991Z,18.11
2018-07-13T06:17:40.144Z,18.12
2018-07-13T06:20:08.033Z,17.97
2018-07-13T06:22:35.272Z,17.93
2018-07-13T06:25:02.465Z,17.99
2018-07-13T06:27:29.584Z,18.09
2018-07-13T06:29:56.743Z,17.94
2018-07-13T06:32:23.914Z,17.96
2018-07-13T06:34:51.136Z,17.99
2018-07-13T06:37:18.305Z,17.97
2018-07-13T06:39:45.491Z,17.98
2018-07-13T06:42:12.659Z,18.07
2018-07-13T06:44:39.852Z,18.14
2018-07-13T06:47:06.961Z,18.21
2018-07-13T06:49:34.092Z,18.09
2018-07-13T06:52:01.261Z,18.23
2018-07-13T06:54:28.416Z,18.36
2018-07-13T06:56:55.698Z,18.52
2018-07-13T06:59:22.796Z,18.75
2018-07-13T07:01:50.068Z,19.13
2018-07-13T07:04:29.581Z,19.06
2018-07-13T07:07:00.421Z,18.89
2018-07-13T07:09:27.761Z,19.01
2018-07-13T07:13:06.928Z,19.18
2018-07-13T07:15:34.118Z,19.08
2018-07-13T07:18:01.311Z,19.17
2018-07-13T07:20:28.471Z,19.24
2018-07-13T07:22:55.720Z,19.59
2018-07-13T07:25:22.932Z,19.89
2018-07-13T07:27:50.077Z,20.01
2018-07-13T07:30:17.306Z,20.39
2018-07-13T07:32:44.736Z,19.96
2018-07-13T07:35:11.844Z,19.96
2018-07-13T07:37:39.068Z,20.26
2018-07-13T07:40:06.292Z,20.53
2018-07-13T07:42:33.661Z,20.63
2018-07-13T07:45:01.044Z,20.44
2018-07-13T07:47:28.224Z,20.62
2018-07-13T07:49:55.712Z,20.89
2018-07-13T07:52:22.776Z,21.15
2018-07-13T07:54:49.900Z,21.22
2018-07-13T07:57:17.080Z,21.15
2018-07-13T07:59:44.692Z,21.15
2018-07-13T08:02:11.872Z,21.09
2018-07-13T08:04:39.084Z,21.08
2018-07-13T08:07:06.704Z,21.28
2018-07-13T08:09:33.341Z,21.48
2018-07-13T08:12:00.448Z,21.57
2018-07-13T08:14:27.587Z,21.40
2018-07-13T08:16:54.732Z,21.72
2018-07-13T08:19:21.845Z,21.79
2018-07-13T08:21:49.164Z,22.01
2018-07-13T08:24:18.336Z,22.02
2018-07-13T08:26:49.254Z,21.84
2018-07-13T08:29:18.423Z,21.95
2018-07-13T08:31:45.552Z,21.56
2018-07-13T08:34:12.707Z,21.64
2018-07-13T08:36:39.888Z,21.81
2018-07-13T08:39:07.906Z,21.88
2018-07-13T08:41:35.131Z,22.07
2018-07-13T08:44:02.413Z,21.94
2018-07-13T08:46:29.544Z,22.04
2018-07-13T08:48:56.705Z,22.35
2018-07-13T08:51:24.062Z,22.70
2018-07-13T08:53:51.209Z,22.58
2018-07-13T08:56:18.423Z,22.22
2018-07-13T08:58:45.627Z,22.28
2018-07-13T09:01:12.776Z,22.91
2018-07-13T09:03:40.028Z,22.89
2018-07-13T09:06:07.180Z,22.50
2018-07-13T09:08:34.372Z,22.52
2018-07-13T09:11:01.562Z,23.14
2018-07-13T09:13:28.704Z,23.09
2018-07-13T09:15:55.931Z,23.28
2018-07-13T09:18:23.943Z,23.55
2018-07-13T09:20:51.070Z,23.62
2018-07-13T09:23:18.236Z,23.57
2018-07-13T09:25:45.378Z,23.75
2018-07-13T09:28:12.477Z,23.83
2018-07-13T09:30:39.659Z,24.01
2018-07-13T09:33:06.855Z,23.92
2018-07-13T09:35:34.048Z,24.25
2018-07-13T09:38:01.279Z,24.04
2018-07-13T09:40:28.456Z,24.19
2018-07-13T09:42:56.647Z,23.57
2018-07-13T09:45:23.797Z,23.49
2018-07-13T09:47:51.036Z,23.36
2018-07-13T09:50:18.252Z,24.35
2018-07-13T09:52:45.441Z,24.25
2018-07-13T09:55:12.576Z,24.62
2018-07-13T09:57:39.774Z,23.97
2018-07-13T10:00:09.152Z,24.50
2018-07-13T10:02:36.337Z,24.69
2018-07-13T10:05:04.032Z,24.88
2018-07-13T10:07:31.236Z,24.77
2018-07-13T10:09:58.371Z,24.71
2018-07-13T10:12:25.566Z,24.15
2018-07-13T10:14:52.704Z,24.12
2018-07-13T10:17:19.925Z,24.44
2018-07-13T10:19:47.124Z,24.52
2018-07-13T10:22:16.923Z,23.96
2018-07-13T10:24:44.661Z,24.58
2018-07-13T10:27:13.491Z,24.28
2018-07-13T10:29:46.448Z,24.93
2018-07-13T10:32:13.664Z,24.94
2018-07-13T10:34:40.833Z,25.31
2018-07-13T10:37:08.344Z,25.36
2018-07-13T10:39:35.553Z,25.35
2018-07-13T10:42:02.824Z,25.46
2018-07-13T10:44:30.013Z,25.94
2018-07-13T10:46:57.385Z,26.05
2018-07-13T10:49:31.516Z,26.34
2018-07-13T10:51:58.684Z,25.98
2018-07-13T10:54:25.856Z,25.49
2018-07-13T10:56:52.986Z,25.32
2018-07-13T10:59:20.150Z,25.68
2018-07-13T11:01:47.312Z,26.26
2018-07-13T11:04:14.500Z,26.64
2018-07-13T11:06:42.453Z,26.68
2018-07-13T11:09:10.271Z,26.69
2018-07-13T11:11:37.468Z,25.63
2018-07-13T11:14:04.672Z,26.20
2018-07-13T11:16:31.885Z,26.73
2018-07-13T11:18:59.089Z,26.05
2018-07-13T11:21:26.419Z,26.18
2018-07-13T11:23:53.528Z,26.16
2018-07-13T11:26:20.689Z,27.04
2018-07-13T11:28:47.808Z,27.26
2018-07-13T11:31:15.208Z,26.82
2018-07-13T11:33:42.377Z,27.42
2018-07-13T11:36:09.521Z,27.22
2018-07-13T11:38:36.677Z,26.43
2018-07-13T11:41:03.883Z,26.34
2018-07-13T11:43:31.061Z,25.29
2018-07-13T11:45:58.205Z,25.34
2018-07-13T11:48:25.324Z,26.20
2018-07-13T11:50:52.456Z,27.43
2018-07-13T11:53:19.676Z,27.36
2018-07-13T11:55:46.875Z,26.82
2018-07-13T11:58:14.093Z,26.26
2018-07-13T12:00:41.461Z,25.85
2018-07-13T12:03:08.643Z,26.29
2018-07-13T12:05:35.839Z,26.48
2018-07-13T12:08:03.072Z,25.75
2018-07-13T12:10:30.210Z,25.96
2018-07-13T12:12:57.409Z,25.90
2018-07-13T12:15:24.565Z,25.54
2018-07-13T12:17:51.701Z,26.35
2018-07-13T12:20:18.877Z,26.91
2018-07-13T12:22:46.056Z,27.00
2018-07-13T12:25:13.348Z,27.35
2018-07-13T12:27:40.520Z,26.92
2018-07-13T12:30:07.737Z,27.97
2018-07-13T12:32:41.815Z,28.31
2018-07-13T12:35:09.001Z,28.34
2018-07-13T12:37:36.222Z,29.00
2018-07-13T12:40:03.877Z,28.92
2018-07-13T12:42:31.067Z,28.57
2018-07-13T12:44:58.208Z,29.21
2018-07-13T12:47:25.370Z,28.06
2018-07-13T12:49:52.534Z,27.94
2018-07-13T12:52:19.700Z,28.64
2018-07-13T12:54:46.892Z,27.68
2018-07-13T12:57:14.060Z,29.34
2018-07-13T12:59:41.273Z,29.27
2018-07-13T13:02:08.467Z,28.69
2018-07-13T13:04:35.636Z,27.70
2018-07-13T13:07:02.871Z,27.59
2018-07-13T13:09:30.093Z,28.34
2018-07-13T13:11:57.268Z,28.74
2018-07-13T13:14:24.440Z,29.23
2018-07-13T13:16:51.629Z,29.54
2018-07-13T13:19:18.847Z,29.16
2018-07-13T13:21:46.096Z,28.33
2018-07-13T13:24:13.276Z,28.83
2018-07-13T13:26:40.456Z,28.88
2018-07-13T13:29:07.662Z,28.24
2018-07-13T13:31:34.900Z,28.18
2018-07-13T13:34:02.095Z,28.88
2018-07-13T13:36:29.216Z,28.41
2018-07-13T13:38:56.367Z,28.19
2018-07-13T13:41:23.541Z,26.92
2018-07-13T13:43:50.743Z,27.46
2018-07-13T13:46:17.883Z,27.67
2018-07-13T13:48:45.084Z,28.05
2018-07-13T13:51:12.268Z,28.14
2018-07-13T13:53:39.478Z,29.03
2018-07-13T13:56:06.635Z,28.83
2018-07-13T13:58:33.808Z,28.10
2018-07-13T14:01:00.959Z,27.13
2018-07-13T14:03:28.068Z,28.16
2018-07-13T14:05:55.220Z,28.35
2018-07-13T14:08:22.383Z,28.78
2018-07-13T14:10:49.618Z,29.66
2018-07-13T14:13:16.780Z,30.00
2018-07-13T14:15:43.972Z,29.71
2018-07-13T14:18:11.133Z,28.79
2018-07-13T14:20:38.329Z,27.89
2018-07-13T14:23:05.587Z,27.53
2018-07-13T14:25:32.797Z,27.14
2018-07-13T14:28:00.002Z,27.08
2018-07-13T14:30:27.224Z,26.46
2018-07-13T14:32:54.350Z,26.33
2018-07-13T14:35:21.531Z,25.46
2018-07-13T14:37:48.984Z,24.92
2018-07-13T14:40:16.263Z,23.87
2018-07-13T14:42:43.380Z,22.98
2018-07-13T14:45:10.523Z,22.44
2018-07-13T14:47:37.740Z,22.27
2018-07-13T14:50:05.130Z,21.82
2018-07-13T14:52:32.351Z,22.33
2018-07-13T14:54:59.537Z,22.59
2018-07-13T14:57:26.767Z,22.40
2018-07-13T14:59:53.889Z,22.24
2018-07-13T15:02:21.098Z,22.32
2018-07-13T15:04:48.299Z,22.51
2018-07-13T15:07:15.455Z,22.32
2018-07-13T15:09:42.657Z,22.34
2018-07-13T15:12:09.853Z,22.36
2018-07-13T15:14:37.012Z,22.31
2018-07-13T15:17:04.262Z,21.92
2018-07-13T15:19:31.409Z,21.81
2018-07-13T15:21:58.562Z,21.61
2018-07-13T15:24:25.765Z,21.22
2018-07-13T15:26:52.950Z,21.19
2018-07-13T15:29:20.115Z,21.12
2018-07-13T15:31:47.257Z,21.19
2018-07-13T15:34:14.484Z,21.06
2018-07-13T15:36:41.671Z,21.02
2018-07-13T15:39:09.085Z,21.26
2018-07-13T15:41:36.265Z,20.78
2018-07-13T15:44:03.761Z,20.84
2018-07-13T15:46:30.967Z,21.02
2018-07-13T15:48:58.165Z,21.19
2018-07-13T15:51:25.373Z,21.30
2018-07-13T15:53:52.524Z,21.53
2018-07-13T15:56:19.667Z,21.78
2018-07-13T15:58:46.937Z,22.16
2018-07-13T16:01:14.068Z,22.23
2018-07-13T16:03:41.249Z,22.49
2018-07-13T16:06:08.421Z,22.68
2018-07-13T16:08:35.679Z,23.34
2018-07-13T16:11:02.798Z,23.91
2018-07-13T16:13:30.049Z,24.08
2018-07-13T16:15:57.233Z,24.07
2018-07-13T16:18:24.401Z,24.24
2018-07-13T16:20:51.647Z,24.15
2018-07-13T16:23:18.816Z,24.20
2018-07-13T16:25:45.960Z,23.82
2018-07-13T16:28:13.156Z,23.73
2018-07-13T16:30:40.350Z,23.87
2018-07-13T16:33:07.479Z,23.65
2018-07-13T16:35:34.872Z,23.56
2018-07-13T16:38:02.059Z,23.26
2018-07-13T16:40:29.291Z,23.62
2018-07-13T16:42:56.475Z,23.84
2018-07-13T16:45:23.676Z,23.96
2018-07-13T16:47:50.825Z,23.94
2018-07-13T16:50:17.987Z,23.88
2018-07-13T16:52:45.135Z,23.87
2018-07-13T16:55:12.364Z,24.07
2018-07-13T16:57:39.497Z,23.83
2018-07-13T17:00:06.664Z,23.65
2018-07-13T17:02:33.804Z,23.58
2018-07-13T17:05:00.951Z,23.27
2018-07-13T17:07:28.149Z,23.35
2018-07-13T17:09:55.300Z,23.65
2018-07-13T17:12:22.420Z,23.43
2018-07-13T17:14:49.639Z,23.51
2018-07-13T17:17:16.808Z,23.71
2018-07-13T17:19:44.209Z,23.95
2018-07-13T17:22:11.383Z,23.92
2018-07-13T17:24:38.571Z,23.89
2018-07-13T17:27:05.772Z,23.47
2018-07-13T17:29:32.935Z,23.22
2018-07-13T17:32:00.185Z,23.16
2018-07-13T17:34:27.363Z,23.14
2018-07-13T17:36:54.561Z,23.53
2018-07-13T17:41:55.805Z,23.72
2018-07-13T17:44:22.985Z,23.62
2018-07-13T17:46:50.173Z,23.15
2018-07-13T17:49:17.394Z,23.05
2018-07-13T17:51:44.585Z,22.90
2018-07-13T17:54:11.764Z,22.80
2018-07-13T17:56:38.919Z,22.77
2018-07-13T17:59:06.133Z,22.75
2018-07-13T18:01:33.264Z,22.81
2018-07-13T18:06:34.296Z,22.93
2018-07-13T18:09:01.440Z,22.74
2018-07-13T18:11:28.641Z,22.39
2018-07-13T18:16:48.784Z,22.08
2018-07-13T18:19:15.963Z,22.22
2018-07-13T18:21:43.119Z,22.32
2018-07-13T18:24:10.429Z,22.42
2018-07-13T18:26:37.629Z,22.34
2018-07-13T18:29:04.846Z,22.43
2018-07-13T18:31:32.014Z,22.21
2018-07-13T18:33:59.219Z,22.30
2018-07-13T18:36:26.433Z,22.25
2018-07-13T18:38:53.585Z,22.02
2018-07-13T18:41:20.812Z,21.47
2018-07-13T18:43:48.045Z,21.02
2018-07-13T18:46:15.236Z,20.91
2018-07-13T18:48:42.386Z,20.82
2018-07-13T18:51:09.992Z,21.09
2018-07-13T18:53:37.439Z,21.21
2018-07-13T18:56:04.722Z,21.40
2018-07-13T18:58:31.892Z,21.60
2018-07-13T19:00:59.049Z,21.67
2018-07-13T19:03:26.247Z,21.16
2018-07-13T19:05:53.431Z,21.03
2018-07-13T19:08:20.674Z,21.05
2018-07-13T19:10:47.868Z,21.30
2018-07-13T19:13:15.161Z,21.35
2018-07-13T19:15:42.364Z,21.34
2018-07-13T19:18:09.597Z,21.12
2018-07-13T19:20:36.835Z,20.95
2018-07-13T19:23:04.220Z,20.89
2018-07-13T19:25:31.374Z,20.89
2018-07-13T19:27:58.567Z,20.55
2018-07-13T19:30:25.844Z,20.37
2018-07-13T19:32:53.123Z,20.18
2018-07-13T19:35:20.330Z,20.22
2018-07-13T19:37:47.525Z,20.19
2018-07-13T19:40:14.681Z,20.28
2018-07-13T19:42:41.935Z,20.22
2018-07-13T19:45:09.133Z,20.06
2018-07-13T19:47:36.386Z,19.89
2018-07-13T19:50:04.519Z,19.59
2018-07-13T19:52:31.683Z,19.63
2018-07-13T19:54:58.895Z,19.74
2018-07-13T19:57:26.169Z,19.31
2018-07-13T19:59:53.268Z,19.09
2018-07-13T20:02:20.448Z,18.95
2018-07-13T20:04:47.656Z,18.96
2018-07-13T20:07:14.809Z,18.78
2018-07-13T20:09:41.986Z,18.61
2018-07-13T20:12:09.174Z,18.92
2018-07-13T20:17:10.439Z,19.14
2018-07-13T20:19:37.645Z,19.05
2018-07-13T20:22:04.860Z,18.97
2018-07-13T20:24:32.061Z,18.23
2018-07-13T20:26:59.270Z,18.19
2018-07-13T20:29:26.493Z,18.25
2018-07-13T20:31:53.632Z,18.51
2018-07-13T20:34:20.802Z,18.53
2018-07-13T20:36:47.955Z,18.59
2018-07-13T20:39:15.405Z,18.11
2018-07-13T20:41:42.699Z,17.78
2018-07-13T20:44:09.900Z,17.96
2018-07-13T20:46:37.101Z,17.78
2018-07-13T20:49:04.327Z,17.96
2018-07-13T20:51:31.480Z,17.90
2018-07-13T20:53:58.676Z,17.98
2018-07-13T20:56:25.823Z,18.06
2018-07-13T20:58:53.169Z,17.81
2018-07-13T21:01:27.157Z,17.70
2018-07-13T21:03:54.307Z,17.80
2018-07-13T21:06:21.403Z,18.00
2018-07-13T21:08:48.560Z,17.95
2018-07-13T21:11:15.712Z,17.89
2018-07-13T21:13:42.901Z,17.88
2018-07-13T21:16:10.096Z,17.93
2018-07-13T21:18:37.294Z,18.07
2018-07-13T21:21:04.509Z,18.01
2018-07-13T21:23:31.639Z,18.01
2018-07-13T21:25:58.748Z,17.66
2018-07-13T21:28:25.909Z,17.43
2018-07-13T21:30:53.057Z,17.48
2018-07-13T21:33:20.181Z,17.16
2018-07-13T21:35:47.347Z,17.49
2018-07-13T21:38:14.480Z,17.49
2018-07-13T21:40:41.653Z,17.29
2018-07-13T21:43:08.802Z,17.37
2018-07-13T21:45:42.828Z,17.37
2018-07-13T21:48:10.029Z,17.67
2018-07-13T21:50:37.197Z,17.68
2018-07-13T21:53:04.332Z,17.58
2018-07-13T21:55:31.473Z,17.46
2018-07-13T21:57:58.676Z,16.70
2018-07-13T22:00:25.880Z,16.80
2018-07-13T22:02:53.114Z,16.75
2018-07-13T22:05:20.248Z,16.76
2018-07-13T22:07:47.480Z,16.80
2018-07-13T22:10:14.656Z,16.67
2018-07-13T22:12:41.785Z,16.25
2018-07-13T22:15:08.970Z,16.41
2018-07-13T22:17:36.177Z,16.64
2018-07-13T22:20:04.012Z,16.66
2018-07-13T22:22:31.172Z,16.50
2018-07-13T22:24:58.393Z,16.57
2018-07-13T22:27:25.545Z,16.76
2018-07-13T22:29:52.711Z,16.81
2018-07-13T22:32:19.828Z,16.77
2018-07-13T22:34:46.948Z,16.35
2018-07-13T22:37:14.112Z,16.34
2018-07-13T22:39:41.276Z,16.38
2018-07-13T22:42:08.450Z,16.35
2018-07-13T22:44:35.600Z,16.08
2018-07-13T22:47:02.832Z,16.00
2018-07-13T22:49:29.969Z,15.90
2018-07-13T22:51:57.156Z,15.95
2018-07-13T22:54:24.299Z,16.00
2018-07-13T22:56:51.471Z,15.92
2018-07-13T22:59:18.643Z,16.17
2018-07-13T23:01:45.767Z,16.20
2018-07-13T23:04:12.925Z,16.26
2018-07-13T23:06:40.101Z,15.87
2018-07-13T23:09:07.596Z,15.72
2018-07-13T23:11:34.696Z,15.99
2018-07-13T23:14:01.865Z,16.12
2018-07-13T23:16:29.044Z,16.04
2018-07-13T23:18:56.450Z,16.09
2018-07-13T23:21:23.582Z,15.84
2018-07-13T23:23:50.782Z,16.00
2018-07-13T23:26:17.936Z,16.04
2018-07-13T23:28:45.065Z,15.90
2018-07-13T23:31:12.175Z,15.80
2018-07-13T23:33:39.393Z,15.70
2018-07-13T23:36:06.541Z,15.49
2018-07-13T23:38:33.720Z,15.50
2018-07-13T23:41:00.881Z,15.68
2018-07-13T23:43:27.993Z,15.78
2018-07-13T23:45:55.262Z,15.83
2018-07-13T23:48:22.388Z,15.89
2018-07-13T23:50:49.534Z,15.87
2018-07-13T23:53:16.633Z,15.81
2018-07-13T23:55:43.784Z,15.59
2018-07-13T23:58:10.896Z,15.80
